Terminal Aerodrome Forecast
Issued by NWS Buffalo, NY

Home | Current Version | Previous Version | Text Only | Print | Product List | Glossary On
Versions: 1 2 3 4 5 6 7 8 9 10 11 12 13 14 15 16 17 18 19 20 21 22 23 24 25 26 27
000
FTUS41 KBUF 290900 AAA
TAFROC
TAF AMD
KROC 290927Z 2909/3006 14005KT P6SM BKN180 OVC250
     FM291700 11004KT P6SM BKN200
     FM292200 09005KT P6SM BKN150
     FM300500 17006KT P6SM BKN110=

USA.gov is the U.S. government's official web portal to all federal, state and local government web resources and services.